createdAt,value
2019-04-30T00:00:03.834Z,83.23
2019-04-30T00:02:39.991Z,83.05
2019-04-30T00:05:09.979Z,82.84
2019-04-30T00:07:35.751Z,82.64
2019-04-30T00:10:06.320Z,82.57
2019-04-30T00:12:37.976Z,82.67
2019-04-30T00:15:00.652Z,83.05
2019-04-30T00:17:26.670Z,83.04
2019-04-30T00:19:58.248Z,83.15
2019-04-30T00:22:30.949Z,83.41
2019-04-30T00:24:50.030Z,83.49
2019-04-30T00:27:21.093Z,83.43
2019-04-30T00:29:45.735Z,83.48
2019-04-30T00:32:12.007Z,83.29
2019-04-30T00:34:39.337Z,83.16
2019-04-30T00:37:07.381Z,83.03
2019-04-30T00:39:35.558Z,82.90
2019-04-30T00:42:01.848Z,83.00
2019-04-30T00:44:28.540Z,83.18
2019-04-30T00:46:55.904Z,83.40
2019-04-30T00:49:23.340Z,83.41
2019-04-30T00:51:55.843Z,83.61
2019-04-30T00:54:22.511Z,83.64
2019-04-30T00:56:46.322Z,83.67
2019-04-30T00:59:12.450Z,83.67
2019-04-30T01:01:56.355Z,83.58
2019-04-30T01:04:28.168Z,83.58
2019-04-30T01:06:52.472Z,83.29
2019-04-30T01:09:18.685Z,83.19
2019-04-30T01:11:48.094Z,83.31
2019-04-30T01:14:12.834Z,83.68
2019-04-30T01:16:39.446Z,83.68
2019-04-30T01:19:12.661Z,83.59
2019-04-30T01:21:33.898Z,83.36
2019-04-30T01:24:00.013Z,83.18
2019-04-30T01:26:27.663Z,83.15
2019-04-30T01:28:58.512Z,83.32
2019-04-30T01:31:22.242Z,83.56
2019-04-30T01:33:48.945Z,83.64
2019-04-30T01:36:15.221Z,83.66
2019-04-30T01:38:44.804Z,83.73
2019-04-30T01:41:09.611Z,83.54
2019-04-30T01:43:35.731Z,83.24
2019-04-30T01:46:12.138Z,83.09
2019-04-30T01:48:29.918Z,83.27
2019-04-30T01:50:56.046Z,83.53
2019-04-30T01:53:22.196Z,83.44
2019-04-30T01:55:52.733Z,83.17
2019-04-30T01:58:20.800Z,83.03
2019-04-30T02:00:54.642Z,82.98
2019-04-30T02:03:20.836Z,82.91
2019-04-30T02:05:46.969Z,82.89
2019-04-30T02:08:13.078Z,83.02
2019-04-30T02:10:40.363Z,82.93
2019-04-30T02:13:06.646Z,82.88
2019-04-30T02:15:32.792Z,83.07
2019-04-30T02:17:58.955Z,83.28
2019-04-30T02:20:25.191Z,83.44
2019-04-30T02:22:51.309Z,83.46
2019-04-30T02:25:19.383Z,83.62
2019-04-30T02:27:45.435Z,83.86
2019-04-30T02:30:11.599Z,83.77
2019-04-30T02:32:39.557Z,84.00
2019-04-30T02:35:19.863Z,84.01
2019-04-30T02:38:04.347Z,83.78
2019-04-30T02:40:33.181Z,83.52
2019-04-30T02:43:01.756Z,83.41
2019-04-30T02:45:29.994Z,83.37
2019-04-30T02:47:56.628Z,83.28
2019-04-30T02:50:25.079Z,83.20
2019-04-30T02:52:51.949Z,83.17
2019-04-30T02:55:21.717Z,83.13
2019-04-30T02:57:49.905Z,83.09
2019-04-30T03:00:20.592Z,83.06
2019-04-30T03:02:45.717Z,83.26
2019-04-30T03:05:13.495Z,83.23
2019-04-30T03:07:40.689Z,83.23
2019-04-30T03:10:10.040Z,83.37
2019-04-30T03:12:35.675Z,83.25
2019-04-30T03:15:02.151Z,83.15
2019-04-30T03:17:46.670Z,83.02
2019-04-30T03:20:34.735Z,82.97
2019-04-30T03:22:54.510Z,82.91
2019-04-30T03:25:20.512Z,82.93
2019-04-30T03:27:46.582Z,82.99
2019-04-30T03:30:12.804Z,83.02
2019-04-30T03:32:42.869Z,83.02
2019-04-30T03:35:06.869Z,83.28
2019-04-30T03:37:32.992Z,83.44
2019-04-30T03:40:00.663Z,83.52
2019-04-30T03:42:29.434Z,83.54
2019-04-30T03:44:54.959Z,83.53
2019-04-30T03:47:21.069Z,83.33
2019-04-30T03:49:49.799Z,83.27
2019-04-30T03:52:15.110Z,83.48
2019-04-30T03:54:41.158Z,83.86
2019-04-30T03:57:07.265Z,83.86
2019-04-30T03:59:33.344Z,83.71
2019-04-30T04:02:01.361Z,83.46
2019-04-30T04:07:32.491Z,83.97
2019-04-30T04:10:03.321Z,84.15
2019-04-30T04:12:30.539Z,84.40
2019-04-30T04:14:56.983Z,84.55
2019-04-30T04:17:23.220Z,84.62
2019-04-30T04:19:50.371Z,84.65
2019-04-30T04:22:16.946Z,84.48
2019-04-30T04:24:42.964Z,84.32
2019-04-30T04:27:09.777Z,84.11
2019-04-30T04:29:35.819Z,83.94
2019-04-30T04:32:01.955Z,83.83
2019-04-30T04:34:30.310Z,83.78
2019-04-30T04:36:55.905Z,83.94
2019-04-30T04:39:21.825Z,84.30
2019-04-30T04:41:50.256Z,84.42
2019-04-30T04:44:16.011Z,84.34
2019-04-30T04:46:42.192Z,84.43
2019-04-30T04:49:09.017Z,84.65
2019-04-30T04:51:39.385Z,84.69
2019-04-30T04:54:03.595Z,84.68
2019-04-30T04:56:30.395Z,84.73
2019-04-30T04:58:56.745Z,84.83
2019-04-30T05:01:22.880Z,84.98
2019-04-30T05:03:49.173Z,85.16
2019-04-30T05:06:15.227Z,85.28
2019-04-30T05:08:41.241Z,85.45
2019-04-30T05:11:07.261Z,85.83
2019-04-30T05:13:34.749Z,86.11
2019-04-30T05:16:00.948Z,86.17
2019-04-30T05:18:28.994Z,86.26
2019-04-30T05:20:55.093Z,86.64
2019-04-30T05:23:21.880Z,86.31
2019-04-30T05:25:49.092Z,86.16
2019-04-30T05:28:15.456Z,86.03
2019-04-30T05:30:41.581Z,86.11
2019-04-30T05:33:08.848Z,86.13
2019-04-30T05:35:35.022Z,86.10
2019-04-30T05:38:01.161Z,86.13
2019-04-30T05:40:28.761Z,86.19
2019-04-30T05:42:54.925Z,86.17
2019-04-30T05:45:20.970Z,86.09
2019-04-30T05:47:50.246Z,86.13
2019-04-30T05:50:16.880Z,86.12
2019-04-30T05:52:43.006Z,86.01
2019-04-30T05:55:09.864Z,85.99
2019-04-30T05:57:35.997Z,85.87
2019-04-30T06:00:06.856Z,86.10
2019-04-30T06:02:33.986Z,86.62
2019-04-30T06:05:00.509Z,86.72
2019-04-30T06:07:26.659Z,86.54
2019-04-30T06:10:00.516Z,86.14
2019-04-30T06:12:37.157Z,85.84
2019-04-30T06:15:24.831Z,85.74
2019-04-30T06:18:00.272Z,85.62
2019-04-30T06:20:21.119Z,85.99
2019-04-30T06:22:51.881Z,86.17
2019-04-30T06:25:28.345Z,86.60
2019-04-30T06:27:44.865Z,86.94
2019-04-30T06:30:12.114Z,87.07
2019-04-30T06:32:39.525Z,87.10
2019-04-30T06:35:09.081Z,87.41
2019-04-30T06:37:35.242Z,87.79
2019-04-30T06:40:01.357Z,88.05
2019-04-30T06:42:29.251Z,87.82
2019-04-30T06:44:55.734Z,87.60
2019-04-30T06:47:32.397Z,87.52
2019-04-30T06:49:50.322Z,87.37
2019-04-30T06:52:20.622Z,87.31
2019-04-30T06:54:44.501Z,87.60
2019-04-30T06:57:12.119Z,87.55
2019-04-30T06:59:39.572Z,87.39
2019-04-30T07:02:05.891Z,87.27
2019-04-30T07:04:32.043Z,87.53
2019-04-30T07:06:58.990Z,87.61
2019-04-30T07:12:30.906Z,87.98
2019-04-30T07:14:59.203Z,87.90
2019-04-30T07:17:25.416Z,88.11
2019-04-30T07:19:56.534Z,88.26
2019-04-30T07:22:36.218Z,88.72
2019-04-30T07:24:49.505Z,88.33
2019-04-30T07:27:15.556Z,88.52
2019-04-30T07:29:41.689Z,88.58
2019-04-30T07:32:09.436Z,88.63
2019-04-30T07:34:37.114Z,88.40
2019-04-30T07:37:15.982Z,88.13
2019-04-30T07:39:33.447Z,88.16
2019-04-30T07:42:00.042Z,88.06
2019-04-30T07:44:35.476Z,88.40
2019-04-30T07:46:54.185Z,88.42
2019-04-30T07:49:20.715Z,88.17
2019-04-30T07:51:47.661Z,87.94
2019-04-30T07:54:15.838Z,87.76
2019-04-30T07:56:42.101Z,87.80
2019-04-30T07:59:11.096Z,88.13
2019-04-30T08:01:36.326Z,88.10
2019-04-30T08:04:13.158Z,88.25
2019-04-30T08:06:39.807Z,88.58
2019-04-30T08:09:10.320Z,88.53
2019-04-30T08:11:41.903Z,88.72
2019-04-30T08:14:05.048Z,88.61
2019-04-30T08:16:31.606Z,88.62
2019-04-30T08:18:59.183Z,88.56
2019-04-30T08:21:25.456Z,88.55
2019-04-30T08:23:51.628Z,88.52
2019-04-30T08:26:18.759Z,88.28
2019-04-30T08:28:45.060Z,88.22
2019-04-30T08:31:11.184Z,88.04
2019-04-30T08:33:37.300Z,87.71
2019-04-30T08:36:03.567Z,87.40
2019-04-30T08:38:30.086Z,87.17
2019-04-30T08:40:58.806Z,86.73
2019-04-30T08:43:24.794Z,86.55
2019-04-30T08:45:50.978Z,86.48
2019-04-30T08:48:18.984Z,86.45
2019-04-30T08:50:45.115Z,86.27
2019-04-30T08:53:11.537Z,86.04
2019-04-30T08:55:39.131Z,86.04
2019-04-30T08:58:09.950Z,85.93
2019-04-30T09:00:33.418Z,85.62
2019-04-30T09:02:59.576Z,85.50
2019-04-30T09:05:30.711Z,85.30
2019-04-30T09:07:56.817Z,85.29
2019-04-30T09:10:22.952Z,85.18
2019-04-30T09:12:49.510Z,85.20
2019-04-30T09:15:18.868Z,84.92
2019-04-30T09:17:58.156Z,84.86
2019-04-30T09:20:13.194Z,84.62
2019-04-30T09:22:39.413Z,84.49
2019-04-30T09:25:06.156Z,84.40
2019-04-30T09:27:32.176Z,84.34
2019-04-30T09:29:58.800Z,84.30
2019-04-30T09:32:25.054Z,84.32
2019-04-30T09:34:51.169Z,85.03
2019-04-30T09:37:18.722Z,85.44
2019-04-30T09:39:45.055Z,84.42
2019-04-30T09:42:11.169Z,84.85
2019-04-30T09:44:39.007Z,84.98
2019-04-30T09:47:05.307Z,85.06
2019-04-30T09:49:31.332Z,84.99
2019-04-30T09:51:59.516Z,85.06
2019-04-30T09:54:25.694Z,84.71
2019-04-30T09:56:52.759Z,84.80
2019-04-30T09:59:19.057Z,84.79
2019-04-30T10:01:45.166Z,83.82
2019-04-30T10:04:11.747Z,84.13
2019-04-30T10:06:40.188Z,84.27
2019-04-30T10:09:09.635Z,84.13
2019-04-30T10:11:37.909Z,83.74
2019-04-30T10:14:04.220Z,84.27
2019-04-30T10:16:32.243Z,84.44
2019-04-30T10:18:59.220Z,84.76
2019-04-30T10:21:26.672Z,84.90
2019-04-30T10:23:52.694Z,84.86
2019-04-30T10:26:18.846Z,84.31
2019-04-30T10:28:45.048Z,84.05
2019-04-30T10:31:11.160Z,84.04
2019-04-30T10:33:38.621Z,83.90
2019-04-30T10:36:04.793Z,83.52
2019-04-30T10:38:30.908Z,83.63
2019-04-30T10:40:58.743Z,84.41
2019-04-30T10:43:25.070Z,84.87
2019-04-30T10:45:51.183Z,85.03
2019-04-30T10:48:17.314Z,85.07
2019-04-30T10:50:43.424Z,85.34
2019-04-30T10:53:12.199Z,85.48
2019-04-30T10:55:38.739Z,85.99
2019-04-30T10:58:05.050Z,84.91
2019-04-30T11:00:38.805Z,83.92
2019-04-30T11:03:17.192Z,83.96
2019-04-30T11:05:33.787Z,84.09
2019-04-30T11:07:59.903Z,84.23
2019-04-30T11:10:26.358Z,84.33
2019-04-30T11:12:52.470Z,83.75
2019-04-30T11:15:20.645Z,83.51
2019-04-30T11:17:46.851Z,83.81
2019-04-30T11:20:13.420Z,83.92
2019-04-30T11:22:40.146Z,83.92
2019-04-30T11:25:06.944Z,84.17
2019-04-30T11:27:33.852Z,84.27
2019-04-30T11:30:03.539Z,84.35
2019-04-30T11:32:28.673Z,83.92
2019-04-30T11:34:54.670Z,84.29
2019-04-30T11:37:20.825Z,84.50
2019-04-30T11:39:47.048Z,84.13
2019-04-30T11:42:13.165Z,83.44
2019-04-30T11:44:40.317Z,83.57
2019-04-30T11:47:19.459Z,83.26
2019-04-30T11:49:45.495Z,83.12
2019-04-30T11:52:11.618Z,83.55
2019-04-30T11:54:48.706Z,83.34
2019-04-30T11:57:05.891Z,83.49
2019-04-30T11:59:32.000Z,83.99
2019-04-30T12:02:00.025Z,83.78
2019-04-30T12:04:26.077Z,83.87
2019-04-30T12:06:54.119Z,83.80
2019-04-30T12:09:25.011Z,84.08
2019-04-30T12:11:51.140Z,84.25
2019-04-30T12:14:18.183Z,83.83
2019-04-30T12:16:45.299Z,83.97
2019-04-30T12:19:11.435Z,83.62
2019-04-30T12:21:38.154Z,83.67
2019-04-30T12:24:04.273Z,83.89
2019-04-30T12:26:30.663Z,83.58
2019-04-30T12:28:56.796Z,83.81
2019-04-30T12:31:22.982Z,83.97
2019-04-30T12:33:49.090Z,83.78
2019-04-30T12:36:15.223Z,83.70
2019-04-30T12:38:41.350Z,83.91
2019-04-30T12:41:07.481Z,83.91
2019-04-30T12:43:33.637Z,83.63
2019-04-30T12:46:04.825Z,83.77
2019-04-30T12:48:30.224Z,83.82
2019-04-30T12:50:59.031Z,83.44
2019-04-30T12:53:27.100Z,83.62
2019-04-30T12:56:08.986Z,83.70
2019-04-30T12:58:35.355Z,83.51
2019-04-30T13:01:01.588Z,83.56
2019-04-30T13:03:28.355Z,83.41
2019-04-30T13:05:56.515Z,83.55
2019-04-30T13:08:23.556Z,83.62
2019-04-30T13:10:50.521Z,83.77
2019-04-30T13:13:17.702Z,83.03
2019-04-30T13:15:44.351Z,83.91
2019-04-30T13:18:10.522Z,83.41
2019-04-30T13:20:39.008Z,83.04
2019-04-30T13:23:04.827Z,82.80
2019-04-30T13:25:35.566Z,82.95
2019-04-30T13:28:01.121Z,82.35
2019-04-30T13:30:29.880Z,82.42
2019-04-30T13:33:00.715Z,82.57
2019-04-30T13:35:28.902Z,82.42
2019-04-30T13:38:06.109Z,82.42
2019-04-30T13:40:39.890Z,82.70
2019-04-30T13:43:07.962Z,82.79
2019-04-30T13:45:34.235Z,81.92
2019-04-30T13:48:00.487Z,81.52
2019-04-30T13:50:26.604Z,82.12
2019-04-30T13:52:52.745Z,81.86
2019-04-30T13:55:19.279Z,82.76
2019-04-30T13:57:45.598Z,82.56
2019-04-30T14:00:14.246Z,82.17
2019-04-30T14:02:44.741Z,81.90
2019-04-30T14:05:15.024Z,81.77
2019-04-30T14:07:51.872Z,82.18
2019-04-30T14:10:19.600Z,81.95
2019-04-30T14:12:47.777Z,82.75
2019-04-30T14:15:14.181Z,82.68
2019-04-30T14:17:40.393Z,82.65
2019-04-30T14:20:06.553Z,82.87
2019-04-30T14:22:32.805Z,82.10
2019-04-30T14:25:01.303Z,81.87
2019-04-30T14:27:27.524Z,81.21
2019-04-30T14:29:53.660Z,81.40
2019-04-30T14:32:19.895Z,82.12
2019-04-30T14:34:46.084Z,81.94
2019-04-30T14:40:17.122Z,81.56
2019-04-30T14:42:52.820Z,81.36
2019-04-30T14:45:21.832Z,81.55
2019-04-30T14:47:53.965Z,81.60
2019-04-30T14:50:22.559Z,81.45
2019-04-30T14:52:50.581Z,81.28
2019-04-30T14:55:21.517Z,81.37
2019-04-30T14:57:52.078Z,81.36
2019-04-30T15:00:26.400Z,81.56
2019-04-30T15:02:58.589Z,81.44
2019-04-30T15:05:25.059Z,81.69
2019-04-30T15:07:51.177Z,81.75
2019-04-30T15:10:17.414Z,81.49
2019-04-30T15:12:43.523Z,81.51
2019-04-30T15:15:12.296Z,81.22
2019-04-30T15:17:40.917Z,81.14
2019-04-30T15:20:08.802Z,81.10
2019-04-30T15:22:38.921Z,81.49
2019-04-30T15:25:05.324Z,81.73
2019-04-30T15:27:31.433Z,81.29
2019-04-30T15:29:57.584Z,80.94
2019-04-30T15:32:23.773Z,81.70
2019-04-30T15:34:51.716Z,81.79
2019-04-30T15:37:21.743Z,82.29
2019-04-30T15:39:46.451Z,82.27
2019-04-30T15:42:16.473Z,81.67
2019-04-30T15:44:45.712Z,81.91
2019-04-30T15:47:11.263Z,81.96
2019-04-30T15:49:37.397Z,82.40
2019-04-30T15:52:03.918Z,82.16
2019-04-30T15:54:32.835Z,82.27
2019-04-30T15:57:00.488Z,82.03
2019-04-30T15:59:40.519Z,82.20
2019-04-30T16:02:11.309Z,82.03
2019-04-30T16:04:41.871Z,81.86
2019-04-30T16:07:08.530Z,81.77
2019-04-30T16:09:38.386Z,81.65
2019-04-30T16:12:24.653Z,81.93
2019-04-30T16:14:50.762Z,81.98
2019-04-30T16:17:21.488Z,81.80
2019-04-30T16:19:47.614Z,81.86
2019-04-30T16:22:13.738Z,81.44
2019-04-30T16:24:39.862Z,81.71
2019-04-30T16:27:05.973Z,81.20
2019-04-30T16:29:32.124Z,81.13
2019-04-30T16:31:59.171Z,81.60
2019-04-30T16:34:25.490Z,81.61
2019-04-30T16:36:51.608Z,81.45
2019-04-30T16:39:18.680Z,81.35
2019-04-30T16:41:44.923Z,81.41
2019-04-30T16:44:11.086Z,81.43
2019-04-30T16:46:37.198Z,81.69
2019-04-30T16:49:03.322Z,81.25
2019-04-30T16:51:29.538Z,81.33
2019-04-30T16:53:55.674Z,81.28
2019-04-30T16:56:21.701Z,81.36
2019-04-30T16:59:04.981Z,81.90
2019-04-30T17:01:32.845Z,81.94
2019-04-30T17:04:06.754Z,81.98
2019-04-30T17:06:38.655Z,82.28
2019-04-30T17:09:10.336Z,82.46
2019-04-30T17:11:59.458Z,82.76
2019-04-30T17:14:25.694Z,83.29
2019-04-30T17:16:51.822Z,83.47
2019-04-30T17:19:19.086Z,83.41
2019-04-30T17:21:45.220Z,83.47
2019-04-30T17:24:14.086Z,83.71
2019-04-30T17:26:40.191Z,83.79
2019-04-30T17:29:06.165Z,83.89
2019-04-30T17:31:32.133Z,84.15
2019-04-30T17:33:58.105Z,83.87
2019-04-30T17:36:24.114Z,84.04
2019-04-30T17:38:50.082Z,84.41
2019-04-30T17:41:16.069Z,84.57
2019-04-30T17:43:42.066Z,84.27
2019-04-30T17:46:08.019Z,84.02
2019-04-30T17:48:34.027Z,84.25
2019-04-30T18:00:48.723Z,83.75
2019-04-30T18:03:58.705Z,84.15
2019-04-30T18:09:20.655Z,83.96
2019-04-30T18:11:46.623Z,83.91
2019-04-30T18:14:12.603Z,83.58
2019-04-30T18:16:38.810Z,83.46
2019-04-30T18:21:48.488Z,83.09
2019-04-30T18:24:25.375Z,83.03
2019-04-30T18:26:53.246Z,83.50
2019-04-30T18:29:19.238Z,83.37
2019-04-30T18:31:45.326Z,83.37
2019-04-30T18:34:11.293Z,83.28
2019-04-30T18:36:38.916Z,83.63
2019-04-30T18:39:05.526Z,84.05
2019-04-30T18:41:31.500Z,83.86
2019-04-30T18:43:59.561Z,84.58
2019-04-30T18:46:25.082Z,84.48
2019-04-30T18:48:52.792Z,84.37
2019-04-30T18:51:33.768Z,84.64
2019-04-30T18:53:49.349Z,84.10
2019-04-30T18:56:15.125Z,83.85
2019-04-30T18:58:43.228Z,83.80
2019-04-30T19:01:09.434Z,83.73
2019-04-30T19:03:35.524Z,83.82
2019-04-30T19:06:03.449Z,83.96
2019-04-30T19:08:34.091Z,84.03
2019-04-30T19:11:08.978Z,84.10
2019-04-30T19:16:27.946Z,84.13
2019-04-30T19:21:48.559Z,83.65
2019-04-30T19:24:14.438Z,83.81
2019-04-30T19:26:40.415Z,83.80
2019-04-30T19:29:07.738Z,83.84
2019-04-30T19:31:33.943Z,83.78
2019-04-30T19:33:59.828Z,83.83
2019-04-30T19:36:34.907Z,84.20
2019-04-30T19:38:53.592Z,84.38
2019-04-30T19:41:19.594Z,84.25
2019-04-30T19:43:45.682Z,84.89
2019-04-30T19:46:11.681Z,84.95
2019-04-30T19:48:37.641Z,85.16
2019-04-30T19:51:03.655Z,85.06
2019-04-30T19:53:30.384Z,85.63
2019-04-30T19:55:56.481Z,85.80
2019-04-30T19:58:29.463Z,85.64
2019-04-30T20:00:50.271Z,85.99
2019-04-30T20:03:16.235Z,86.11
2019-04-30T20:05:42.243Z,85.79
2019-04-30T20:08:11.033Z,85.63
2019-04-30T20:10:36.077Z,85.48
2019-04-30T20:13:05.829Z,85.55
2019-04-30T20:15:31.783Z,85.28
2019-04-30T20:18:01.052Z,85.25
2019-04-30T20:20:28.773Z,85.64
2019-04-30T20:22:55.066Z,85.48
2019-04-30T20:25:21.212Z,85.79
2019-04-30T20:27:47.186Z,85.67
2019-04-30T20:30:13.178Z,85.78
2019-04-30T20:32:39.197Z,85.59
2019-04-30T20:35:05.537Z,85.84
2019-04-30T20:37:32.194Z,85.79
2019-04-30T20:40:00.064Z,85.88
2019-04-30T20:42:26.033Z,85.79
2019-04-30T20:44:51.998Z,86.23
2019-04-30T20:47:18.408Z,86.56
2019-04-30T20:49:45.564Z,86.16
2019-04-30T20:52:11.525Z,86.14
2019-04-30T20:54:39.020Z,86.37
2019-04-30T20:57:05.003Z,86.76
2019-04-30T20:59:30.977Z,86.51
2019-04-30T21:01:57.358Z,86.17
2019-04-30T21:04:23.348Z,86.27
2019-04-30T21:06:49.714Z,86.04
2019-04-30T21:09:15.821Z,85.96
2019-04-30T21:11:41.789Z,85.62
2019-04-30T21:14:08.912Z,85.33
2019-04-30T21:16:34.943Z,85.17
2019-04-30T21:19:00.810Z,85.03
2019-04-30T21:21:28.818Z,85.62
2019-04-30T21:23:54.554Z,86.08
2019-04-30T21:26:20.539Z,86.53
2019-04-30T21:28:46.520Z,86.71
2019-04-30T21:31:30.701Z,86.85
2019-04-30T21:34:00.307Z,86.80
2019-04-30T21:36:28.456Z,86.82
2019-04-30T21:38:54.438Z,86.80
2019-04-30T21:41:20.533Z,86.91
2019-04-30T21:43:46.498Z,86.80
2019-04-30T21:46:12.495Z,86.82
2019-04-30T21:48:38.978Z,86.83
2019-04-30T21:51:04.964Z,86.85
2019-04-30T21:53:30.951Z,87.08
2019-04-30T21:55:56.947Z,86.81
2019-04-30T21:58:22.934Z,86.67
2019-04-30T22:01:07.685Z,86.52
2019-04-30T22:03:33.749Z,86.30
2019-04-30T22:05:59.814Z,86.12
2019-04-30T22:08:25.703Z,86.39
2019-04-30T22:10:51.702Z,86.33
2019-04-30T22:13:18.508Z,86.31
2019-04-30T22:15:44.589Z,86.44
2019-04-30T22:18:10.677Z,86.45
2019-04-30T22:20:38.750Z,86.34
2019-04-30T22:23:04.482Z,86.55
2019-04-30T22:25:30.486Z,86.66
2019-04-30T22:27:56.382Z,86.44
2019-04-30T22:30:22.450Z,86.63
2019-04-30T22:32:48.426Z,86.82
2019-04-30T22:35:28.164Z,86.71
2019-04-30T22:38:14.886Z,86.55
2019-04-30T22:40:40.853Z,86.35
2019-04-30T22:43:06.818Z,86.45
2019-04-30T22:45:34.699Z,86.34
2019-04-30T22:48:00.657Z,86.54
2019-04-30T22:50:26.569Z,86.68
2019-04-30T22:52:52.431Z,86.92
2019-04-30T22:55:18.527Z,86.97
2019-04-30T22:57:44.511Z,86.97
2019-04-30T23:00:12.367Z,86.97
2019-04-30T23:02:43.043Z,86.92
2019-04-30T23:05:10.912Z,86.87
2019-04-30T23:07:36.911Z,86.77
2019-04-30T23:10:04.214Z,86.31
2019-04-30T23:12:30.179Z,86.31
2019-04-30T23:14:56.358Z,86.34
2019-04-30T23:17:22.324Z,86.26
2019-04-30T23:19:49.629Z,86.50
2019-04-30T23:22:15.781Z,86.42
2019-04-30T23:24:41.842Z,86.45
2019-04-30T23:27:07.793Z,86.67
2019-04-30T23:29:33.764Z,86.68
2019-04-30T23:31:59.737Z,86.68
2019-04-30T23:34:25.692Z,86.90
2019-04-30T23:36:51.656Z,86.77
2019-04-30T23:39:17.629Z,86.76
2019-04-30T23:41:43.590Z,86.55
2019-04-30T23:44:09.617Z,86.92
2019-04-30T23:46:35.604Z,86.77
2019-04-30T23:49:01.604Z,87.09
2019-04-30T23:51:27.565Z,87.40
2019-04-30T23:53:53.531Z,87.46
2019-04-30T23:56:19.509Z,87.37
2019-04-30T23:58:45.473Z,87.60
